Time;durP1;ratioP1;P1;durP2;ratioP2;P2;SDS_P1;SDS_P2;PMS_P1;PMS_P2;Temp;Humidity;BMP_temperature;BMP_pressure;BME280_temperature;BME280_humidity;BME280_pressure;Samples;Min_cycle;Max_cycle;Signal;HPM_P1;HPM_P2
2020/12/15 00:00:25;;;;;;;;;;;;;;;;;;;;;
2020/12/15 00:03:15;;;;;;;3.67;1.13;;;;;;;7.45;86.90;98867.19;4881347;29;20133;-76
2020/12/15 00:09:38;;;;;;;11.13;0.70;;;;;;;7.43;86.28;98885.69;4847232;29;20038;-79
2020/12/15 00:12:34;;;;;;;;;;;;;;;;;;;;;
2020/12/15 00:15:02;;;;;;;;;;;;;;;7.40;86.24;98891.69;4881326;29;20109;-75
2020/12/15 00:18:05;;;;;;;;;;;;;;;;;;;;;
2020/12/15 00:20:42;;;;;;;6.45;0.95;;;;;;;7.27;86.87;98881.44;4887316;29;20093;-75
2020/12/15 00:23:11;;;;;;;3.50;0.90;;;;;;;7.25;86.88;98880.91;4910533;29;20028;-76
2020/12/15 00:25:45;;;;;;;6.28;0.90;;;;;;;7.16;86.23;98876.06;4911803;29;20043;-77
2020/12/15 00:28:24;;;;;;;;;;;;;;;;;;;;;
2020/12/15 00:30:52;;;;;;;4.88;0.98;;;;;;;7.19;86.34;98873.91;4925330;29;20110;-74
2020/12/15 00:33:35;;;;;;;;;;;;;;;;;;;;;
2020/12/15 00:36:16;;;;;;;10.23;1.27;;;;;;;7.22;87.21;98895.06;4917375;29;20080;-71
2020/12/15 00:39:13;;;;;;;5.97;0.60;;;;;;;7.22;86.89;98897.78;4900312;29;20055;-73
2020/12/15 00:41:59;;;;;;;;;;;;;;;;;;;;;
2020/12/15 00:44:34;;;;;;;10.68;1.25;;;;;;;7.28;86.92;98888.50;4917449;29;20544;-73
2020/12/15 00:47:03;;;;;;;8.48;0.93;;;;;;;7.34;87.32;98887.38;4896233;29;20889;-74
2020/12/15 00:49:57;;;;;;;5.03;0.70;;;;;;;7.42;87.55;98881.34;4901289;29;20473;-72
2020/12/15 00:52:27;;;;;;;6.18;0.75;;;;;;;7.51;87.44;98876.91;4913889;29;20032;-72
2020/12/15 00:54:58;;;;;;;3.80;0.75;;;;;;;7.59;87.02;98882.84;4906235;29;20120;-73
2020/12/15 00:57:26;;;;;;;8.55;1.00;;;;;;;7.66;87.26;98883.34;4906720;29;20028;-74
2020/12/15 00:59:53;;;;;;;2.95;0.40;;;;;;;7.76;87.58;98885.97;4907373;29;20032;-73
2020/12/15 01:02:22;;;;;;;4.15;0.77;;;;;;;7.76;86.92;98888.69;4912609;29;20036;-76
2020/12/15 01:04:55;;;;;;;9.60;0.77;;;;;;;7.92;87.81;98891.28;4917010;29;20059;-75
2020/12/15 01:07:21;;;;;;;6.53;0.77;;;;;;;7.93;87.41;98890.19;4922128;28;20047;-76
2020/12/15 01:09:46;;;;;;;2.65;0.50;;;;;;;8.08;87.16;98906.38;4918321;29;20037;-75
2020/12/15 01:12:13;;;;;;;2.55;0.73;;;;;;;8.14;86.95;98910.69;4922237;29;20095;-74
2020/12/15 01:14:39;;;;;;;10.88;0.80;;;;;;;8.19;87.32;98913.38;4921466;29;20530;-72
2020/12/15 01:17:08;;;;;;;2.40;0.70;;;;;;;8.24;87.47;98908.97;4911263;29;20048;-72
2020/12/15 01:19:33;;;;;;;3.53;0.73;;;;;;;8.27;87.23;98919.28;4914366;29;20028;-74
2020/12/15 01:21:59;;;;;;;6.60;1.00;;;;;;;8.31;87.41;98925.75;4908213;29;20028;-73
2020/12/15 01:24:25;;;;;;;3.40;0.60;;;;;;;8.33;86.48;98929.03;4904810;29;20039;-76
2020/12/15 01:26:51;;;;;;;4.32;0.80;;;;;;;8.34;87.33;98936.09;4915755;29;20032;-75
2020/12/15 01:29:17;;;;;;;4.53;0.65;;;;;;;8.30;87.49;98924.97;4919555;29;20032;-74
2020/12/15 01:31:43;;;;;;;2.38;0.43;;;;;;;8.27;86.32;98927.47;4902937;29;20103;-74
2020/12/15 01:34:08;;;;;;;18.60;2.47;;;;;;;8.17;86.90;98915.53;4918669;29;20075;-78
2020/12/15 01:36:34;;;;;;;27.75;6.85;;;;;;;8.12;87.19;98931.94;4897801;29;20036;-75
2020/12/15 01:39:00;;;;;;;23.02;5.82;;;;;;;8.06;87.19;98919.47;4897715;29;20035;-77
2020/12/15 01:41:25;;;;;;;10.35;3.08;;;;;;;7.94;87.18;98916.31;4926730;29;20039;-75
2020/12/15 01:44:01;;;;;;;9.48;2.08;;;;;;;7.96;87.36;98930.47;4910448;29;20131;-75
2020/12/15 01:46:27;;;;;;;9.68;2.22;;;;;;;7.85;86.32;98927.00;4917165;29;20016;-75
2020/12/15 01:48:57;;;;;;;5.45;1.83;;;;;;;7.77;87.38;98922.97;4907722;29;20024;-71
2020/12/15 01:51:28;;;;;;;3.17;1.00;;;;;;;7.67;87.37;98929.31;4913516;29;20024;-73
2020/12/15 01:54:00;;;;;;;11.70;1.63;;;;;;;7.64;87.42;98929.88;4910596;29;20043;-72
2020/12/15 01:56:27;;;;;;;12.93;1.40;;;;;;;7.56;86.73;98937.81;4908865;29;20033;-71
2020/12/15 01:58:54;;;;;;;5.55;1.20;;;;;;;7.49;87.12;98933.53;4903608;28;20122;-73
2020/12/15 02:01:20;;;;;;;5.18;1.33;;;;;;;7.44;87.22;98941.69;4926699;29;20212;-72
2020/12/15 02:03:46;;;;;;;7.25;1.25;;;;;;;7.35;87.87;98932.50;4933159;29;20028;-71
2020/12/15 02:06:11;;;;;;;3.65;1.00;;;;;;;7.37;87.44;98935.75;4915977;29;20046;-72
2020/12/15 02:08:37;;;;;;;11.82;1.55;;;;;;;7.37;88.11;98943.91;4931312;29;20039;-72
2020/12/15 02:11:03;;;;;;;10.05;1.05;;;;;;;7.31;87.66;98937.69;4927954;29;20083;-72
2020/12/15 02:13:29;;;;;;;5.65;0.90;;;;;;;7.24;87.86;98942.66;4919691;29;20028;-71
2020/12/15 02:15:55;;;;;;;4.70;0.95;;;;;;;7.20;87.76;98932.59;4918482;29;20405;-73
2020/12/15 02:18:20;;;;;;;8.20;1.02;;;;;;;7.24;88.01;98947.25;4912725;29;21118;-71
2020/12/15 02:20:46;;;;;;;11.60;1.63;;;;;;;7.19;87.66;98944.56;4918163;29;20071;-71
2020/12/15 02:23:12;;;;;;;8.48;1.17;;;;;;;7.20;87.62;98954.34;4940652;29;20039;-72
2020/12/15 02:25:37;;;;;;;15.50;1.33;;;;;;;7.10;87.66;98942.44;4932521;28;20042;-71
2020/12/15 02:28:03;;;;;;;5.97;1.60;;;;;;;7.11;88.28;98948.66;4930322;29;20036;-73
2020/12/15 02:30:29;;;;;;;14.23;1.70;;;;;;;7.09;87.84;98959.81;4933328;29;20043;-71
2020/12/15 02:32:54;;;;;;;13.32;1.58;;;;;;;7.09;88.39;98962.53;4913132;29;20039;-72
2020/12/15 02:35:19;;;;;;;9.18;1.25;;;;;;;7.10;88.30;98964.19;4934447;29;20056;-73
2020/12/15 02:37:46;;;;;;;11.30;1.33;;;;;;;7.09;87.97;98964.47;4937566;29;20482;-71
2020/12/15 02:40:12;;;;;;;5.90;1.05;;;;;;;7.06;87.33;98965.03;4899706;29;20111;-72
2020/12/15 02:42:37;;;;;;;6.00;1.10;;;;;;;7.04;87.72;98959.88;4935509;29;20074;-72
2020/12/15 02:45:03;;;;;;;5.50;1.67;;;;;;;6.97;87.53;98959.34;4937795;29;20792;-72
2020/12/15 02:47:28;;;;;;;4.38;1.25;;;;;;;6.99;86.65;98962.59;4919274;29;20452;-72
2020/12/15 02:49:54;;;;;;;3.20;0.75;;;;;;;6.97;86.92;98959.34;4922769;29;20024;-73
2020/12/15 02:52:19;;;;;;;1.08;0.40;;;;;;;6.95;86.67;98972.38;4934210;29;20037;-73
2020/12/15 02:54:49;;;;;;;0.88;0.43;;;;;;;6.91;86.75;98965.91;4932402;29;20023;-72
2020/12/15 02:57:16;;;;;;;2.28;0.30;;;;;;;6.85;86.05;98964.28;4906596;29;20039;-73
2020/12/15 02:59:42;;;;;;;3.03;0.57;;;;;;;6.81;86.13;98969.47;4930451;29;20047;-71
2020/12/15 03:02:08;;;;;;;3.45;0.80;;;;;;;6.81;86.59;98972.19;4898864;29;20032;-72
2020/12/15 03:04:33;;;;;;;0.50;0.43;;;;;;;6.79;86.84;98977.06;4914925;29;20043;-71
2020/12/15 03:06:59;;;;;;;0.32;0.10;;;;;;;6.73;86.70;98970.84;4910263;29;20479;-71
2020/12/15 03:09:24;;;;;;;1.92;0.20;;;;;;;6.70;86.12;98968.69;4921297;29;20048;-72
2020/12/15 03:11:50;;;;;;;3.92;0.40;;;;;;;6.70;86.79;98979.56;4908634;29;20024;-71
2020/12/15 03:14:15;;;;;;;7.78;0.93;;;;;;;6.71;87.05;98981.16;4937139;28;20502;-71
2020/12/15 03:16:40;;;;;;;2.08;0.40;;;;;;;6.73;87.08;98984.44;4928293;29;20027;-71
2020/12/15 03:19:06;;;;;;;1.30;0.15;;;;;;;6.74;87.15;98988.75;4937559;29;20075;-71
2020/12/15 03:21:35;;;;;;;1.83;0.40;;;;;;;6.76;86.53;98996.63;4930089;29;20028;-70
2020/12/15 03:24:03;;;;;;;2.55;0.22;;;;;;;6.80;86.56;98995.00;4932224;29;20027;-73
2020/12/15 03:26:28;;;;;;;0.38;0.10;;;;;;;6.84;86.93;98987.13;4936556;29;20043;-73
2020/12/15 03:28:54;;;;;;;0.20;0.13;;;;;;;6.86;86.59;98985.72;4944114;29;20115;-72
2020/12/15 03:31:19;;;;;;;0.52;0.10;;;;;;;6.86;86.32;98990.38;4920706;29;20103;-71
2020/12/15 03:33:46;;;;;;;0.00;0.00;;;;;;;6.83;86.44;98989.00;4925417;29;20039;-72
2020/12/15 03:36:11;;;;;;;0.13;0.05;;;;;;;6.80;86.49;98984.97;4926322;29;20044;-73
2020/12/15 03:38:36;;;;;;;0.00;0.00;;;;;;;6.75;86.45;98993.09;4922823;29;20122;-71
2020/12/15 03:41:02;;;;;;;0.20;0.10;;;;;;;6.69;85.50;98988.78;4919571;29;20034;-72
2020/12/15 03:43:27;;;;;;;0.30;0.10;;;;;;;6.64;85.23;98988.78;4914109;29;20039;-72
2020/12/15 03:45:55;;;;;;;0.95;0.00;;;;;;;6.61;85.26;98994.78;4914002;29;20055;-72
2020/12/15 03:48:20;;;;;;;1.77;0.00;;;;;;;6.55;85.67;98990.44;4909584;29;20036;-72
2020/12/15 03:50:46;;;;;;;0.82;0.30;;;;;;;6.55;85.71;98995.88;4897849;29;20038;-72
2020/12/15 03:53:11;;;;;;;1.55;0.20;;;;;;;6.57;86.40;98989.09;4929197;29;20039;-71
2020/12/15 03:55:37;;;;;;;0.10;0.00;;;;;;;6.59;86.34;99002.38;4927491;29;20055;-72
2020/12/15 03:58:02;;;;;;;0.13;0.10;;;;;;;6.59;86.07;98996.97;4915095;29;20032;-71
2020/12/15 04:00:28;;;;;;;0.10;0.00;;;;;;;6.62;86.45;99009.97;4931145;29;20040;-73
2020/12/15 04:02:53;;;;;;;0.00;0.00;;;;;;;6.65;86.34;99004.00;4924516;29;20042;-73
2020/12/15 04:05:19;;;;;;;0.00;0.00;;;;;;;6.72;86.37;99006.44;4934072;29;20028;-73
2020/12/15 04:07:44;;;;;;;0.17;0.10;;;;;;;6.75;86.87;99006.69;4934068;29;20032;-72
2020/12/15 04:10:10;;;;;;;0.00;0.00;;;;;;;6.80;86.99;99014.84;4935967;29;20056;-72
2020/12/15 04:12:36;;;;;;;0.00;0.00;;;;;;;6.88;87.16;99010.75;4917155;29;20103;-71
2020/12/15 04:15:04;;;;;;;0.17;0.08;;;;;;;7.01;86.90;99013.94;4921626;29;20454;-72
2020/12/15 04:17:29;;;;;;;0.52;0.20;;;;;;;7.11;87.71;99009.31;4919799;29;20474;-72
2020/12/15 04:19:55;;;;;;;0.00;0.00;;;;;;;7.23;87.17;99010.88;4910053;29;20036;-72
2020/12/15 04:22:20;;;;;;;1.48;0.60;;;;;;;7.31;87.86;99018.47;4908168;29;20115;-72
2020/12/15 04:24:45;;;;;;;0.15;0.03;;;;;;;7.33;87.31;99010.84;4925729;29;20020;-73
2020/12/15 04:27:11;;;;;;;0.30;0.00;;;;;;;7.28;86.68;99013.59;4910665;29;20032;-73
2020/12/15 04:29:36;;;;;;;1.17;0.10;;;;;;;7.18;85.99;99019.88;4932252;29;20346;-74
2020/12/15 04:32:02;;;;;;;0.10;0.00;;;;;;;7.12;85.63;99015.56;4925307;29;20035;-73
2020/12/15 04:34:27;;;;;;;0.35;0.10;;;;;;;7.06;86.32;99024.81;4914308;29;20151;-73
2020/12/15 04:36:52;;;;;;;0.25;0.10;;;;;;;6.99;86.32;99027.81;4930256;29;20035;-74
2020/12/15 04:39:18;;;;;;;0.32;0.10;;;;;;;6.95;86.51;99022.13;4910124;29;20209;-74
2020/12/15 04:41:44;;;;;;;0.52;0.10;;;;;;;6.92;85.60;99024.56;4929421;29;20024;-74
2020/12/15 04:44:09;;;;;;;0.10;0.00;;;;;;;6.88;85.62;99023.50;4919818;29;20051;-74
2020/12/15 04:46:40;;;;;;;0.13;0.00;;;;;;;6.79;85.75;99024.06;4892522;29;20028;-73
2020/12/15 04:49:08;;;;;;;0.15;0.00;;;;;;;6.74;85.28;99026.78;4899475;29;20040;-75
2020/12/15 04:51:57;;;;;;;0.10;0.10;;;;;;;6.67;85.98;99026.25;4935730;29;20019;-74
2020/12/15 04:54:36;;;;;;;1.35;0.15;;;;;;;6.62;86.25;99037.16;4922134;29;20111;-72
2020/12/15 04:57:03;;;;;;;1.60;0.68;;;;;;;6.58;86.27;99033.34;4935896;29;20059;-73
2020/12/15 04:59:31;;;;;;;2.05;0.32;;;;;;;6.55;86.18;99044.75;4941184;29;20106;-73
2020/12/15 05:01:58;;;;;;;1.10;0.30;;;;;;;6.50;86.33;99047.47;4942174;29;20063;-73
2020/12/15 05:04:25;;;;;;;0.82;0.30;;;;;;;6.47;86.23;99049.66;4938919;29;20030;-72
2020/12/15 05:06:54;;;;;;;0.30;0.20;;;;;;;6.42;86.17;99041.50;4916133;29;20032;-73
2020/12/15 05:09:32;;;;;;;1.48;0.20;;;;;;;6.42;85.87;99038.78;4934498;29;20043;-74
2020/12/15 05:11:58;;;;;;;1.45;0.20;;;;;;;6.39;86.32;99039.31;4920616;29;20559;-75
2020/12/15 05:14:25;;;;;;;0.43;0.13;;;;;;;6.42;85.94;99044.22;4934838;29;20043;-73
2020/12/15 05:16:54;;;;;;;0.08;0.08;;;;;;;6.40;86.00;99040.97;4932926;29;20058;-72
2020/12/15 05:19:20;;;;;;;0.10;0.10;;;;;;;6.41;86.00;99037.16;4917001;29;20048;-72
2020/12/15 05:21:59;;;;;;;0.03;0.03;;;;;;;6.37;86.52;99036.06;4933272;29;20035;-73
2020/12/15 05:24:27;;;;;;;0.15;0.05;;;;;;;6.36;85.83;99036.34;4914724;29;20057;-74
2020/12/15 05:26:54;;;;;;;0.90;0.30;;;;;;;6.33;85.76;99037.69;4921270;29;20110;-74
2020/12/15 05:29:21;;;;;;;0.25;0.05;;;;;;;6.35;86.18;99040.97;4923218;29;20512;-73
2020/12/15 05:31:47;;;;;;;5.50;0.77;;;;;;;6.39;86.41;99044.75;4896897;29;20059;-73
2020/12/15 05:34:21;;;;;;;8.25;0.95;;;;;;;6.45;86.90;99045.56;4919084;29;20043;-73
2020/12/15 05:36:55;;;;;;;2.85;0.75;;;;;;;6.57;87.76;99048.00;4935814;29;20031;-73
2020/12/15 05:39:22;;;;;;;4.90;0.60;;;;;;;6.66;87.19;99050.97;4925391;29;20120;-73
2020/12/15 05:42:02;;;;;;;6.82;1.20;;;;;;;6.67;86.77;99042.56;4937275;29;20038;-73
2020/12/15 05:44:28;;;;;;;5.47;0.63;;;;;;;6.65;87.20;99044.75;4935110;29;20028;-74
2020/12/15 05:47:02;;;;;;;2.10;0.85;;;;;;;6.61;86.65;99043.66;4920601;29;20135;-74
2020/12/15 05:49:30;;;;;;;4.13;0.65;;;;;;;6.58;86.54;99050.44;4929676;29;20725;-71
2020/12/15 05:51:56;;;;;;;4.30;0.60;;;;;;;6.56;86.86;99057.25;4921662;29;20024;-72
2020/12/15 05:54:21;;;;;;;13.35;0.90;;;;;;;6.49;86.95;99062.97;4937207;29;20034;-73
2020/12/15 05:56:47;;;;;;;10.40;1.05;;;;;;;6.45;87.20;99064.59;4928971;29;20027;-72
2020/12/15 05:59:21;;;;;;;10.85;0.85;;;;;;;6.47;87.41;99076.00;4922503;29;20064;-74
2020/12/15 06:01:50;;;;;;;4.50;0.88;;;;;;;6.49;88.00;99086.59;4942340;29;20426;-74
2020/12/15 06:04:17;;;;;;;4.00;0.52;;;;;;;6.59;87.77;99090.09;4935191;29;20104;-75
2020/12/15 06:06:43;;;;;;;3.22;0.98;;;;;;;6.61;87.37;99081.69;4927943;29;20035;-73
2020/12/15 06:09:12;;;;;;;1.30;0.20;;;;;;;6.57;87.44;99077.88;4916614;29;20028;-73
2020/12/15 06:11:40;;;;;;;6.30;0.28;;;;;;;6.54;86.25;99081.16;4912043;29;20028;-73
2020/12/15 06:14:09;;;;;;;1.65;0.22;;;;;;;6.47;86.48;99081.44;4921997;29;20105;-74
2020/12/15 06:16:35;;;;;;;3.63;0.20;;;;;;;6.43;87.01;99081.16;4917251;29;20068;-74
2020/12/15 06:19:01;;;;;;;1.35;0.35;;;;;;;6.39;87.21;99085.50;4916679;29;20035;-75
2020/12/15 06:21:28;;;;;;;1.63;0.40;;;;;;;6.39;86.80;99088.19;4917874;29;20028;-74
2020/12/15 06:24:04;;;;;;;2.15;0.20;;;;;;;6.42;86.39;99095.00;4935070;29;20032;-75
2020/12/15 06:26:32;;;;;;;0.65;0.32;;;;;;;6.41;86.91;99098.78;4926691;29;20509;-74
2020/12/15 06:29:00;;;;;;;1.85;0.40;;;;;;;6.41;86.95;99094.19;4915965;29;20391;-75
2020/12/15 06:31:25;;;;;;;3.78;0.30;;;;;;;6.40;86.67;99095.28;4914697;29;20061;-74
2020/12/15 06:33:55;;;;;;;2.00;0.30;;;;;;;6.38;86.62;99083.88;4929763;29;20024;-75
2020/12/15 06:36:32;;;;;;;5.65;0.90;;;;;;;6.37;87.01;99082.25;4917383;29;20032;-74
2020/12/15 06:39:01;;;;;;;5.18;0.88;;;;;;;6.38;87.50;99083.03;4916105;29;20343;-74
2020/12/15 06:41:27;;;;;;;7.43;1.00;;;;;;;6.38;87.92;99078.44;4914933;29;20026;-73
2020/12/15 06:44:05;;;;;;;10.23;1.13;;;;;;;6.37;86.97;99076.00;4914403;29;20044;-75
2020/12/15 06:46:31;;;;;;;7.70;1.13;;;;;;;6.37;87.58;99076.00;4931839;29;20438;-73
2020/12/15 06:48:56;;;;;;;3.47;0.98;;;;;;;6.36;87.08;99077.88;4914818;29;20032;-72
2020/12/15 06:51:33;;;;;;;3.70;0.77;;;;;;;6.34;87.22;99077.34;4911525;29;20478;-72
2020/12/15 06:54:04;;;;;;;2.17;0.45;;;;;;;6.29;87.90;99077.34;4934522;29;20048;-71
2020/12/15 06:56:31;;;;;;;5.13;1.02;;;;;;;6.27;87.79;99087.66;4925323;29;20075;-72
2020/12/15 06:59:04;;;;;;;4.97;1.08;;;;;;;6.24;87.47;99089.00;4918614;29;20123;-72
2020/12/15 07:01:30;;;;;;;1.38;0.80;;;;;;;6.21;86.64;99094.19;4932128;29;20027;-74
2020/12/15 07:04:04;;;;;;;3.65;0.60;;;;;;;6.19;86.91;99096.34;4916316;29;20102;-73
2020/12/15 07:06:29;;;;;;;0.80;0.50;;;;;;;6.14;87.18;99096.34;4929256;29;20047;-73
2020/12/15 07:09:09;;;;;;;1.90;0.32;;;;;;;6.10;87.11;99094.16;4919864;29;20119;-73
2020/12/15 07:11:35;;;;;;;1.33;0.52;;;;;;;6.07;87.09;99094.69;4948103;29;20028;-73
2020/12/15 07:14:03;;;;;;;2.15;0.50;;;;;;;6.10;87.14;99104.19;4933391;29;20051;-73
2020/12/15 07:16:29;;;;;;;1.98;0.35;;;;;;;6.13;86.79;99111.00;4946604;29;20031;-73
2020/12/15 07:18:55;;;;;;;2.63;0.40;;;;;;;6.14;86.60;99126.19;4944861;28;20031;-73
2020/12/15 07:21:23;;;;;;;1.05;0.43;;;;;;;6.15;87.48;99117.78;4931397;29;20806;-73
2020/12/15 07:23:49;;;;;;;0.73;0.43;;;;;;;6.17;87.13;99136.50;4931843;29;20023;-73
2020/12/15 07:26:17;;;;;;;1.98;0.20;;;;;;;6.16;86.54;99134.88;4918540;29;20139;-74
2020/12/15 07:28:44;;;;;;;0.60;0.50;;;;;;;6.13;86.72;99132.69;4934158;29;20034;-73
2020/12/15 07:31:11;;;;;;;0.85;0.30;;;;;;;6.12;87.20;99134.63;4906258;29;20047;-74
2020/12/15 07:33:38;;;;;;;1.40;0.40;;;;;;;6.09;87.08;99135.94;4926222;29;20040;-73
2020/12/15 07:36:13;;;;;;;0.50;0.20;;;;;;;6.09;87.01;99135.94;4913373;29;20059;-73
2020/12/15 07:38:39;;;;;;;3.03;0.40;;;;;;;6.13;87.52;99146.28;4932725;29;20477;-74
2020/12/15 07:41:15;;;;;;;0.60;0.25;;;;;;;6.13;87.29;99146.28;4917442;29;21435;-73
2020/12/15 07:43:51;;;;;;;4.15;0.63;;;;;;;6.26;88.07;99159.31;4929905;29;20043;-73
2020/12/15 07:46:17;;;;;;;7.22;1.17;;;;;;;6.32;88.57;99160.97;4934480;29;20478;-76
2020/12/15 07:48:44;;;;;;;4.10;1.27;;;;;;;6.51;88.57;99174.84;4921846;29;20166;-73
2020/12/15 07:51:12;;;;;;;11.25;1.20;;;;;;;6.66;88.22;99165.06;4931239;29;20123;-73
2020/12/15 07:53:38;;;;;;;6.53;0.85;;;;;;;6.72;89.33;99161.31;4936591;29;20031;-70
2020/12/15 07:56:05;;;;;;;3.30;0.80;;;;;;;6.83;88.04;99171.06;4926941;29;20035;-73
2020/12/15 07:58:31;;;;;;;11.15;1.08;;;;;;;6.97;88.96;99188.47;4932827;29;20047;-73
2020/12/15 08:01:00;;;;;;;4.53;0.98;;;;;;;7.05;88.42;99200.69;4917005;29;20039;-72
2020/12/15 08:03:25;;;;;;;1.95;0.52;;;;;;;7.11;88.16;99188.72;4940427;29;20095;-70
2020/12/15 08:06:08;;;;;;;11.00;2.10;;;;;;;7.12;87.73;99182.19;4927978;29;20028;-73
2020/12/15 08:08:34;;;;;;;5.38;4.45;;;;;;;7.12;87.39;99179.47;4935349;29;20032;-71
2020/12/15 08:11:00;;;;;;;4.40;2.13;;;;;;;7.16;87.50;99191.44;4938513;28;20111;-71
2020/12/15 08:13:25;;;;;;;2.78;1.10;;;;;;;7.13;87.37;99191.19;4920548;29;20056;-73
2020/12/15 08:15:54;;;;;;;4.10;0.90;;;;;;;7.04;87.70;99196.34;4909332;29;20054;-75
2020/12/15 08:18:20;;;;;;;2.20;0.60;;;;;;;6.99;86.24;99190.91;4925127;29;20032;-74
2020/12/15 08:20:47;;;;;;;2.30;0.45;;;;;;;6.94;86.66;99188.19;4929268;29;20032;-75
2020/12/15 08:23:14;;;;;;;0.90;0.17;;;;;;;6.91;85.87;99196.91;4938109;29;20031;-75
2020/12/15 08:25:47;;;;;;;0.38;0.20;;;;;;;6.75;86.06;99186.00;4920772;29;20028;-76
2020/12/15 08:28:20;;;;;;;0.93;0.20;;;;;;;6.73;86.24;99201.78;4931088;29;20024;-75
2020/12/15 08:30:47;;;;;;;0.20;0.20;;;;;;;6.69;85.51;99208.84;4914688;29;20111;-75
2020/12/15 08:33:29;;;;;;;0.17;0.10;;;;;;;6.68;85.72;99223.50;4934088;29;20024;-75
2020/12/15 08:35:59;;;;;;;0.60;0.20;;;;;;;6.65;85.68;99221.31;4928415;29;20030;-76
2020/12/15 08:38:29;;;;;;;0.75;0.50;;;;;;;6.64;86.11;99223.22;4931758;29;20023;-74
2020/12/15 08:40:57;;;;;;;0.45;0.20;;;;;;;6.65;86.95;99229.47;4924311;29;20106;-74
2020/12/15 08:43:23;;;;;;;0.63;0.20;;;;;;;6.70;87.20;99237.66;4927981;29;20050;-75
2020/12/15 08:45:49;;;;;;;1.77;0.10;;;;;;;6.69;86.48;99241.44;4917603;29;20057;-73
2020/12/15 08:48:17;;;;;;;1.38;0.40;;;;;;;6.70;86.97;99243.06;4938850;29;20047;-72
2020/12/15 08:50:43;;;;;;;0.55;0.40;;;;;;;6.68;86.14;99247.94;4913026;29;20017;-73
2020/12/15 08:53:14;;;;;;;0.55;0.22;;;;;;;6.74;87.10;99248.78;4905474;29;20039;-71
2020/12/15 08:55:40;;;;;;;0.80;0.28;;;;;;;6.75;86.58;99250.41;4897818;29;20047;-74
2020/12/15 08:58:08;;;;;;;1.58;0.10;;;;;;;6.85;86.26;99249.59;4931740;29;20035;-74
2020/12/15 09:00:36;;;;;;;0.22;0.03;;;;;;;6.85;86.89;99250.44;4900682;29;20076;-72
2020/12/15 09:03:20;;;;;;;0.38;0.38;;;;;;;6.82;86.04;99240.09;4921831;29;20024;-74
2020/12/15 09:05:52;;;;;;;0.15;0.10;;;;;;;6.82;85.85;99240.91;4904695;29;20484;-74
2020/12/15 09:08:19;;;;;;;1.55;0.10;;;;;;;6.86;86.64;99253.94;4913869;29;20031;-74
2020/12/15 09:10:45;;;;;;;1.63;0.60;;;;;;;6.85;86.60;99257.75;4906256;29;20031;-74
2020/12/15 09:13:13;;;;;;;3.92;0.40;;;;;;;6.99;86.85;99261.56;4912199;29;20115;-73
2020/12/15 09:15:53;;;;;;;0.85;0.55;;;;;;;7.19;87.97;99270.84;4899930;29;20387;-73
2020/12/15 09:18:33;;;;;;;3.72;1.13;;;;;;;7.39;87.97;99268.13;4911991;29;20558;-74
2020/12/15 09:21:19;;;;;;;1.73;0.60;;;;;;;7.78;88.39;99283.84;4908799;29;20024;-73
2020/12/15 09:23:49;;;;;;;1.65;0.40;;;;;;;8.13;88.37;99290.28;4905200;29;20036;-74
2020/12/15 09:26:16;;;;;;;8.95;0.80;;;;;;;8.32;86.90;99303.28;4908636;29;20559;-74
2020/12/15 09:28:41;;;;;;;1.00;0.40;;;;;;;8.28;86.54;99323.97;4896319;29;20390;-74
2020/12/15 09:31:14;;;;;;;4.22;0.77;;;;;;;8.18;86.28;99305.78;4884649;29;20033;-75
2020/12/15 09:33:40;;;;;;;0.95;0.32;;;;;;;8.07;86.91;99296.81;4898304;29;20040;-75
2020/12/15 09:36:05;;;;;;;2.17;0.45;;;;;;;8.10;87.78;99298.97;4913617;29;20173;-73
2020/12/15 09:38:35;;;;;;;5.35;0.60;;;;;;;8.11;87.16;99307.97;4910879;29;20055;-74
2020/12/15 09:41:01;;;;;;;9.52;3.45;;;;;;;8.21;87.37;99297.06;4894393;29;20020;-74
2020/12/15 09:43:27;;;;;;;3.90;3.55;;;;;;;8.30;87.84;99300.03;4882103;29;20028;-73
2020/12/15 09:45:52;;;;;;;3.45;3.15;;;;;;;8.32;87.19;99311.44;4917418;29;20112;-74
2020/12/15 09:48:18;;;;;;;6.43;1.67;;;;;;;8.25;86.67;99319.09;4916305;29;20039;-74
2020/12/15 09:50:44;;;;;;;5.28;0.80;;;;;;;8.19;87.18;99312.84;4891754;29;20112;-73
2020/12/15 09:53:09;;;;;;;7.38;0.90;;;;;;;8.06;85.66;99300.66;4903114;29;20032;-73
2020/12/15 09:55:35;;;;;;;8.55;1.38;;;;;;;7.98;85.53;99303.94;4886897;29;20347;-73
2020/12/15 09:58:00;;;;;;;3.45;0.40;;;;;;;7.86;86.20;99293.34;4899803;29;20388;-72
2020/12/15 10:00:26;;;;;;;3.72;0.50;;;;;;;7.82;85.84;99292.25;4923995;29;20066;-72
2020/12/15 10:02:51;;;;;;;6.95;0.60;;;;;;;7.84;85.74;99288.19;4905865;29;20374;-72
2020/12/15 10:05:16;;;;;;;4.68;0.75;;;;;;;7.79;86.03;99295.53;4918685;29;20386;-73
2020/12/15 10:07:42;;;;;;;3.85;0.95;;;;;;;7.89;87.08;99281.09;4937245;29;20036;-74
2020/12/15 10:10:07;;;;;;;5.82;0.50;;;;;;;8.16;88.06;99270.66;4923651;29;20039;-74
2020/12/15 10:12:33;;;;;;;0.90;0.30;;;;;;;9.17;88.79;99282.38;4908030;29;20071;-73
2020/12/15 10:14:59;;;;;;;2.25;0.70;;;;;;;10.41;87.08;99277.34;4915429;29;20139;-75
2020/12/15 10:17:27;;;;;;;10.93;0.73;;;;;;;11.55;81.65;99290.16;4912461;29;20032;-72
2020/12/15 10:19:53;;;;;;;7.32;0.80;;;;;;;12.53;79.19;99291.06;4928854;29;20112;-74
2020/12/15 10:22:18;;;;;;;3.67;0.45;;;;;;;13.21;73.08;99318.63;4912564;29;20056;-75
2020/12/15 10:24:46;;;;;;;3.40;0.30;;;;;;;13.58;70.47;99295.50;4908957;29;20040;-73
2020/12/15 10:27:12;;;;;;;3.80;0.45;;;;;;;13.92;65.88;99298.75;4932167;29;20036;-73
2020/12/15 10:29:38;;;;;;;1.60;0.40;;;;;;;14.34;64.77;99310.25;4936048;29;20019;-74
2020/12/15 10:32:04;;;;;;;3.67;0.50;;;;;;;14.64;61.68;99316.81;4936137;29;20582;-74
2020/12/15 10:34:29;;;;;;;5.82;0.50;;;;;;;14.95;60.64;99309.59;4929564;29;20063;-74
2020/12/15 10:36:56;;;;;;;3.67;0.65;;;;;;;15.27;58.84;99319.31;4918584;29;20036;-73
2020/12/15 10:39:24;;;;;;;1.27;0.40;;;;;;;15.57;58.94;99316.72;4909776;29;20127;-75
2020/12/15 10:41:51;;;;;;;0.77;0.25;;;;;;;16.04;56.89;99327.00;4949656;29;20055;-74
2020/12/15 10:44:19;;;;;;;0.93;0.22;;;;;;;16.45;56.13;99325.53;4938021;29;20042;-73
2020/12/15 10:46:45;;;;;;;1.50;0.40;;;;;;;16.72;54.42;99317.94;4944828;29;20483;-74
2020/12/15 10:49:12;;;;;;;1.75;0.38;;;;;;;17.14;54.19;99312.44;4924437;29;20578;-74
2020/12/15 10:51:37;;;;;;;0.28;0.17;;;;;;;17.61;53.41;99330.75;4923386;29;20031;-74
2020/12/15 10:54:06;;;;;;;0.75;0.20;;;;;;;18.00;51.99;99338.84;4947680;28;20424;-72
2020/12/15 10:56:43;;;;;;;1.85;0.10;;;;;;;18.33;49.69;99352.63;4929685;29;20024;-74
2020/12/15 10:59:13;;;;;;;1.70;0.20;;;;;;;18.58;49.69;99355.41;4942169;28;20042;-76
2020/12/15 11:01:39;;;;;;;0.30;0.20;;;;;;;18.97;49.26;99350.34;4924473;29;20028;-76
2020/12/15 11:04:07;;;;;;;3.08;0.30;;;;;;;19.42;50.13;99354.00;4930180;28;20076;-75
2020/12/15 11:06:40;;;;;;;1.80;0.30;;;;;;;19.87;47.92;99341.84;4907138;29;20042;-75
2020/12/15 11:09:05;;;;;;;4.10;0.40;;;;;;;20.33;48.26;99333.91;4904597;29;20046;-75
2020/12/15 11:11:31;;;;;;;3.72;0.65;;;;;;;20.79;46.03;99346.53;4934069;29;20034;-75
2020/12/15 11:13:56;;;;;;;1.55;0.52;;;;;;;21.15;45.51;99347.34;4925412;29;20023;-76
2020/12/15 11:16:23;;;;;;;0.93;0.22;;;;;;;21.41;44.07;99339.16;4924986;29;20035;-73
2020/12/15 11:18:48;;;;;;;1.92;0.32;;;;;;;21.64;45.04;99341.25;4921078;29;20035;-76
2020/12/15 11:21:14;;;;;;;0.15;0.10;;;;;;;21.95;45.09;99339.44;4917615;29;20039;-75
2020/12/15 11:23:42;;;;;;;1.55;0.28;;;;;;;22.14;43.57;99336.59;4921818;29;20031;-74
2020/12/15 11:26:16;;;;;;;1.80;0.38;;;;;;;22.53;45.52;99340.44;4922957;29;20042;-77
2020/12/15 11:28:42;;;;;;;1.55;0.68;;;;;;;23.05;43.94;99350.00;4942127;29;20031;-75
2020/12/15 11:31:11;;;;;;;0.57;0.30;;;;;;;23.51;42.92;99355.41;4933174;28;20034;-74
2020/12/15 11:33:37;;;;;;;0.28;0.20;;;;;;;23.50;42.09;99353.00;4916032;29;20043;-73
2020/12/15 11:36:10;;;;;;;1.02;0.40;;;;;;;22.47;42.21;99360.28;4918128;29;20087;-72
2020/12/15 11:38:39;;;;;;;1.20;0.40;;;;;;;20.98;45.89;99345.78;4927166;29;20118;-73
2020/12/15 11:41:05;;;;;;;0.32;0.25;;;;;;;20.56;49.15;99349.94;4932581;29;20058;-73
2020/12/15 11:43:30;;;;;;;1.70;0.70;;;;;;;20.36;46.99;99354.59;4902729;29;20566;-72
2020/12/15 11:45:55;;;;;;;0.90;0.85;;;;;;;19.20;48.21;99350.59;4926385;29;20032;-73
2020/12/15 11:48:21;;;;;;;1.02;0.93;;;;;;;17.99;51.68;99339.97;4890418;29;20039;-73
2020/12/15 11:50:46;;;;;;;3.83;0.90;;;;;;;16.82;53.48;99328.59;4912513;29;20012;-73
2020/12/15 11:53:12;;;;;;;1.20;0.60;;;;;;;15.87;57.01;99345.22;4951303;29;20035;-72
2020/12/15 11:55:38;;;;;;;0.50;0.32;;;;;;;15.35;59.30;99348.00;4929780;29;20091;-71